Tenerife Norte-Ciudad de La Laguna Airport

GCXO · Santa Cruz de Tenerife, Wyspy Kanaryjskie, Hiszpania

Historia METAR GCXO · Tenerife Norte Airport

Poniżej widzisz METAR-y z ostatnich kilku dni. Wybierz rok, aby przeglądać starsze METAR-y, począwszy od roku 2007.

24 lipca 2024

Czas Kod Pogoda Temp. Widoczność Sufit Wiatr METAR/SPECI
17:00
V
26 °C 10 km+ - 290° 290° 14 kt METAR GCXO 241600Z 29014KT CAVOK 26/17 Q1020 NOSIG
16:30
V
30 °C 10 km+ - 310° 310° 10 kt METAR GCXO 241530Z 31010KT CAVOK 30/09 Q1020 NOSIG
16:00
V
30 °C 10 km+ - 300° 300° 12 kt METAR GCXO 241500Z 30012KT CAVOK 30/14 Q1020 NOSIG
15:30
V
31 °C 10 km+ - 300° 300° 16 kt METAR GCXO 241430Z 30016KT CAVOK 31/15 Q1020 NOSIG
15:00
V
29 °C 10 km+ - 310° 310° 16 kt METAR GCXO 241400Z 31016KT CAVOK 29/15 Q1020 NOSIG
14:30
V
30 °C 10 km+ - 310° 310° 12 kt METAR GCXO 241330Z 31012KT 280V350 CAVOK 30/16 Q1020 NOSIG
14:00
V
28 °C 10 km+ - 300° 300° 9 kt METAR GCXO 241300Z 30009KT CAVOK 28/17 Q1020 NOSIG
13:30
V
26 °C 10 km+ - 280° 280° 11 kt METAR GCXO 241230Z 28011KT 9999 FEW004 26/17 Q1021 NOSIG
13:00
V
26 °C 10 km+ - 290° 290° 13 kt METAR GCXO 241200Z 29013KT 9999 FEW004 26/20 Q1021 NOSIG
12:30
V
30 °C 10 km+ - Var Var 4 kt METAR GCXO 241130Z VRB04KT 9999 FEW005 30/03 Q1021 NOSIG
12:00
V
29 °C 10 km+ - 140° 140° 6 kt METAR GCXO 241100Z 14006KT 080V200 9999 FEW005 29/03 Q1021 NOSIG
11:30
V
31 °C 10 km+ - 110° 110° 7 kt METAR GCXO 241030Z 11007KT 070V150 9999 FEW005 31/02 Q1021 NOSIG
11:00
V
30 °C 10 km+ - 140° 140° 7 kt METAR GCXO 241000Z 14007KT 090V180 9999 FEW005 30/M06 Q1021 NOSIG
10:30
V
30 °C 10 km+ - 140° 140° 9 kt METAR GCXO 240930Z 14009KT 110V180 CAVOK 30/M05 Q1021 NOSIG
10:00
V
30 °C 10 km+ - Var Var 3 kt METAR GCXO 240900Z VRB03KT 9999 FEW001 30/M00 Q1021 NOSIG
09:30
V
30 °C 10 km+ - 100° 100° 5 kt METAR GCXO 240830Z 10005KT 9999 FEW001 30/M00 Q1020 NOSIG
09:00
V
29 °C 10 km+ - 130° 130° 3 kt METAR GCXO 240800Z 13003KT 9999 2800NW BCFG FEW000 29/01 Q1020 NOSIG
08:30
V
27 °C 10 km+ - 120° 120° 4 kt METAR GCXO 240730Z 12004KT 9999 FEW005 27/00 Q1020 NOSIG
08:00
V
27 °C 10 km+ - 130° 130° 4 kt METAR GCXO 240700Z 13004KT 100V170 9999 FEW005 27/00 Q1020 NOSIG
07:30
V
25 °C 10 km+ - 140° 140° 4 kt METAR GCXO 240630Z 14004KT 9999 FEW005 25/M04 Q1020 NOSIG
07:00
V
26 °C 10 km+ - 140° 140° 6 kt METAR GCXO 240600Z 14006KT CAVOK 26/M08 Q1020 NOSIG
06:30
V
26 °C 10 km+ - 150° 150° 5 kt METAR GCXO 240530Z 15005KT 100V190 CAVOK 26/M10 Q1020 NOSIG
06:00
V
25 °C 10 km+ - 170° 170° 7 kt METAR GCXO 240500Z 17007KT 140V200 CAVOK 25/M13 Q1020 NOSIG
05:30
V
25 °C 10 km+ - 150° 150° 6 kt METAR GCXO 240430Z AUTO 15006KT 110V190 CAVOK 25/M08 Q1020
05:00
V
25 °C 10 km+ - 170° 170° 8 kt METAR GCXO 240400Z AUTO 17008KT 140V200 CAVOK 25/01 Q1020
04:30
V
24 °C 10 km+ - 130° 130° 6 kt METAR GCXO 240330Z AUTO 13006KT 100V160 9999 2800SE NCD 24/05 Q1020
04:00
V
25 °C 10 km+ - 160° 160° 5 kt METAR GCXO 240300Z AUTO 16005KT 130V190 CAVOK 25/04 Q1020
03:30
V
19 °C 10 km+ - Var Var 2 kt METAR GCXO 240230Z AUTO VRB02KT CAVOK 19/09 Q1020
03:00
V
20 °C 10 km+ - Var Var 2 kt METAR GCXO 240200Z AUTO VRB02KT CAVOK 20/08 Q1020
02:30
V
21 °C 10 km+ - 250° 250° 5 kt METAR GCXO 240130Z AUTO 25005KT 210V290 CAVOK 21/09 Q1020
02:00
L
20 °C 10 km+ 100 ft 260° 260° 9 kt METAR GCXO 240100Z AUTO 26009KT 9999 1800NW VV001 20/11 Q1020
01:30
L
19 °C 9 km 100 ft 260° 260° 8 kt METAR GCXO 240030Z AUTO 26008KT 9000 1400NW VV001 19/14 Q1020
01:00
L
17 °C 1,7 km 200 ft 260° 260° 12 kt METAR GCXO 240000Z AUTO 26012KT 1700 0600NW BR BCFG VV002 17/17 Q1020
00:30
L
17 °C 3,5 km 200 ft 260° 260° 11 kt METAR GCXO 232330Z AUTO 26011KT 3500 BR VV002 17/17 Q1021
00:00
L
18 °C 8 km 100 ft 260° 260° 12 kt METAR GCXO 232300Z AUTO 26012KT 8000 1800NW BKN001 18/18 Q1021

23 lipca 2024

Czas Kod Pogoda Temp. Widoczność Sufit Wiatr METAR/SPECI
23:30
V
18 °C 8 km - 270° 270° 14 kt METAR GCXO 232230Z 27014KT 8000 1700NW BCFG FEW000 SCT001 18/18 Q1021 NOSIG
23:00
V
18 °C 10 km+ - 270° 270° 14 kt METAR GCXO 232200Z 27014KT 9999 2200NW BCFG FEW000 SCT002 18/18 Q1021 NOSIG
22:30
V
18 °C 10 km+ - 270° 270° 14 kt METAR GCXO 232130Z 27014KT 9999 2400NW BCFG FEW000 SCT002 18/17 Q1021 NOSIG
22:00
V
18 °C 10 km+ - 270° 270° 14 kt METAR GCXO 232100Z 27014KT 9999 SCT003 18/17 Q1020 NOSIG
21:30
V
18 °C 10 km+ - 280° 280° 15 kt METAR GCXO 232030Z 28015KT 9999 FEW000 SCT003 18/17 Q1020 NOSIG
21:00
V
18 °C 10 km+ - 280° 280° 15 kt METAR GCXO 232000Z 28015KT 9999 FEW000 SCT002 18/17 Q1020 NOSIG
20:30
V
19 °C 10 km+ - 280° 280° 15 kt METAR GCXO 231930Z 28015KT 9999 SCT003 19/17 Q1020 NOSIG
20:00
V
19 °C 10 km+ - 280° 280° 15 kt METAR GCXO 231900Z 28015KT 9999 SCT003 19/18 Q1019 NOSIG
19:30
V
20 °C 10 km+ - 290° 290° 16 kt METAR GCXO 231830Z 29016KT 9999 SCT003 20/18 Q1019 NOSIG
19:00
V
19 °C 10 km+ - 280° 280° 17 kt METAR GCXO 231800Z 28017KT 9999 SCT004 19/17 Q1019 NOSIG
18:30
V
20 °C 10 km+ - 280° 280° 18 kt METAR GCXO 231730Z 28018KT 9999 SCT004 20/17 Q1019 NOSIG
18:00
V
20 °C 10 km+ - 290° 290° 19 kt METAR GCXO 231700Z 29019KT 9999 SCT005 20/17 Q1019 NOSIG
17:30
V
21 °C 10 km+ - 280° 280° 18 kt METAR GCXO 231630Z 28018KT 9999 FEW005 21/18 Q1019 NOSIG
17:00
V
21 °C 10 km+ - 280° 280° 16 kt METAR GCXO 231600Z 28016KT 9999 FEW006 21/17 Q1020 NOSIG
16:30
V
23 °C 10 km+ - 280° 280° 17 kt METAR GCXO 231530Z 28017KT 9999 FEW006 23/18 Q1020 NOSIG
16:00
V
22 °C 10 km+ - 290° 290° 18 kt METAR GCXO 231500Z 29018KT 9999 FEW005 22/18 Q1020 NOSIG
15:30
V
21 °C 10 km+ - 290° 290° 19 kt METAR GCXO 231430Z 29019KT 9999 FEW006 21/17 Q1020 NOSIG
15:00
V
22 °C 10 km+ - 290° 290° 18 kt METAR GCXO 231400Z 29018KT 9999 FEW006 22/18 Q1020 NOSIG
14:30
V
23 °C 10 km+ - 290° 290° 18 kt METAR GCXO 231330Z 29018KT 9999 FEW006 23/18 Q1020 NOSIG
14:00
V
22 °C 10 km+ - 280° 280° 18 kt METAR GCXO 231300Z 28018KT 9999 FEW006 22/17 Q1020 NOSIG
13:30
V
22 °C 10 km+ - 290° 290° 17 kt METAR GCXO 231230Z 29017KT 9999 FEW005 22/18 Q1021 NOSIG
13:00
V
22 °C 10 km+ - 280° 280° 16 kt METAR GCXO 231200Z 28016KT 9999 FEW005 22/18 Q1021 NOSIG
12:30
V
21 °C 10 km+ - 280° 280° 14 kt METAR GCXO 231130Z 28014KT 9999 FEW005 21/16 Q1021 NOSIG
12:00
V
20 °C 10 km+ - 280° 280° 16 kt METAR GCXO 231100Z 28016KT 9999 SCT006 20/17 Q1021 NOSIG
11:30
V
20 °C 10 km+ - 280° 280° 15 kt METAR GCXO 231030Z 28015KT 9999 SCT004 20/17 Q1020 NOSIG
11:00
L
20 °C 10 km+ 400 ft 280° 280° 16 kt METAR GCXO 231000Z 28016KT 9999 BKN004 20/18 Q1020 BECMG SCT005
10:30
L
20 °C 10 km+ 300 ft 280° 280° 16 kt METAR GCXO 230930Z 28016KT 9999 BKN003 20/18 Q1020 BECMG SCT005
10:00
L
19 °C 7 km 200 ft 280° 280° 16 kt METAR GCXO 230900Z 28016KT 7000 1600NW R30/P2000 R12/1400U PRFG FEW000 BKN002 19/19 Q1020 BECMG SCT005
09:30
L
18 °C 6 km 200 ft 280° 280° 17 kt METAR GCXO 230830Z 28017KT 6000 1800NW R30/P2000 R12/1400U BCFG FEW000 BKN002 18/18 Q1020 BECMG SCT005
09:00
L
18 °C 6 km 200 ft 280° 280° 16 kt METAR GCXO 230800Z 28016KT 6000 2100NW BCFG FEW000 BKN002 18/18 Q1019 BECMG SCT005
08:49
L
18 °C 4,5 km 200 ft 280° 280° 16 kt METAR GCXO 230749Z 28016KT 4500 2100NW BCFG FEW000 BKN002 18/18 Q1019 NOSIG
08:30
L
17 °C 600 m 100 ft 280° 280° 17 kt METAR GCXO 230730Z 28017KT 0600 R30/1700N R12/0550N FG VV001 17/17 Q1019 NOSIG
08:15
L
17 °C 600 m 200 ft 280° 280° 16 kt METAR GCXO 230715Z 28016KT 0600 R30/1900N R12/0800D FG VV002 17/17 Q1019 NOSIG
08:00
L
17 °C 1,3 km 100 ft 280° 280° 17 kt METAR GCXO 230700Z 28017KT 1300 0500NW R30/1700U R12/0500D PRFG SCT000 BKN001 17/17 Q1019 NOSIG
07:30
L
17 °C 500 m 200 ft 280° 280° 17 kt METAR GCXO 230630Z 28017KT 0500 R30/1900N R12/1400D FG VV002 17/17 Q1019 NOSIG
07:00
L
17 °C 500 m 100 ft 280° 280° 18 kt METAR GCXO 230600Z 28018KT 0500 R30/0750D R12/0700N FG VV001 17/17 Q1019 NOSIG
06:30
L
17 °C 600 m 100 ft 280° 280° 18 kt METAR GCXO 230530Z 28018KT 0600 R30/0900U R12/0800U FG VV001 17/17 Q1019 NOSIG
06:00
L
17 °C 500 m 100 ft 290° 290° 18 kt METAR GCXO 230500Z 29018KT 0500 R30/1900N R12/0700U FG VV001 17/17 Q1019 NOSIG
05:30
L
17 °C 800 m 200 ft 280° 280° 17 kt METAR GCXO 230430Z AUTO 28017KT 0800 0600NW R30/P2000 R12/1600D FG VV002 17/17 Q1019
05:00
L
17 °C 500 m 100 ft 290° 290° 19 kt METAR GCXO 230400Z AUTO 29019KT 0500 0200NW R30/1800D R12/0550N FG VV001 17/17 Q1019
04:30
L
17 °C 3,5 km 200 ft 290° 290° 19 kt METAR GCXO 230330Z AUTO 29019KT 3500 1700NW R30///// R12/1100U BR VV002 17/17 Q1019
04:00
L
17 °C 900 m 200 ft 280° 280° 18 kt METAR GCXO 230300Z AUTO 28018KT 0900 0300NW R30///// R12/0800U FG VV002 17/17 Q1019
03:30
L
17 °C 800 m 100 ft 290° 290° 18 kt METAR GCXO 230230Z AUTO 29018KT 0800 0300NW R30///// R12/0900U FG VV001 17/17 Q1019
03:00
L
18 °C 1,8 km 200 ft 280° 280° 17 kt METAR GCXO 230200Z AUTO 28017KT 1800 0550NW BR BCFG VV002 18/18 Q1019
02:30
L
18 °C 9 km 200 ft 290° 290° 18 kt METAR GCXO 230130Z AUTO 29018KT 9000 1400NW VV002 18/18 Q1019
02:00
L
18 °C 4,3 km 200 ft 280° 280° 17 kt METAR GCXO 230100Z AUTO 28017KT 4300 BR OVC002 18/18 Q1020
01:30
L
18 °C 7 km 200 ft 280° 280° 18 kt METAR GCXO 230030Z AUTO 28018KT 7000 OVC002 18/17 Q1020
01:00
L
18 °C 7 km 200 ft 280° 280° 16 kt METAR GCXO 230000Z AUTO 28016KT 7000 OVC002 18/18 Q1020
00:30
L
18 °C 7 km 200 ft 290° 290° 18 kt METAR GCXO 222330Z AUTO 29018KT 7000 OVC002 18/17 Q1020
00:00
L
18 °C 9 km 300 ft 290° 290° 20 kt METAR GCXO 222300Z AUTO 29020KT 9000 OVC003 18/18 Q1020

22 lipca 2024

Czas Kod Pogoda Temp. Widoczność Sufit Wiatr METAR/SPECI
23:30
L
18 °C 8 km 200 ft 300° 300° 22 kt METAR GCXO 222230Z AUTO 30022KT 8000 OVC002 18/18 Q1020
23:00
I
18 °C 4 km 500 ft 290° 290° 20 kt METAR GCXO 222200Z 29020KT 9999 4000 PRFG SCT001 BKN005 18/18 Q1020 NOSIG
22:30
I
18 °C 4 km 500 ft 300° 300° 20 kt METAR GCXO 222130Z 30020KT 9999 4000 PRFG SCT001 BKN005 18/18 Q1020 NOSIG
22:00
I
18 °C 3 km 500 ft 300° 300° 20 kt METAR GCXO 222100Z 30020KT 9999 3000 PRFG SCT001 BKN005 18/18 Q1019 NOSIG
21:30
I
18 °C 4,5 km 500 ft 290° 290° 21 kt METAR GCXO 222030Z 29021KT 9999 4500 PRFG SCT001 BKN005 18/18 Q1019 NOSIG
21:00
I
18 °C 10 km+ 600 ft 290° 290° 18 kt METAR GCXO 222000Z 29018KT 260V320 9999 SCT002 BKN006 18/18 Q1019 NOSIG
20:30
I
19 °C 10 km+ 600 ft 280° 280° 19 kt METAR GCXO 221930Z 28019KT 250V320 9999 SCT002 BKN006 19/18 Q1019 NOSIG
20:00
I
19 °C 10 km+ 700 ft 290° 290° 20 kt METAR GCXO 221900Z 29020KT 9999 SCT003 BKN007 19/18 Q1019 NOSIG
19:30
I
19 °C 10 km+ 900 ft 290° 290° 21 kt METAR GCXO 221830Z 29021KT 9999 SCT004 BKN009 19/18 Q1018 NOSIG
19:00
I
20 °C 10 km+ 900 ft 290° 290° 20 kt METAR GCXO 221800Z 29020KT 9999 SCT004 BKN009 20/18 Q1018 NOSIG
18:30
I
21 °C 10 km+ 700 ft 290° 290° 20 kt METAR GCXO 221730Z 29020KT 9999 SCT003 BKN007 21/19 Q1018 NOSIG
18:00
I
20 °C 10 km+ 700 ft 290° 290° 18 kt METAR GCXO 221700Z 29018KT 260V320 9999 SCT003 OVC007 20/18 Q1019 NOSIG
17:30
L
19 °C 1 km 500 ft 290° 290° 19 kt METAR GCXO 221630Z 29019KT 4500 1000 BCFG SCT001 OVC005 19/19 Q1019 NOSIG
17:00
L
20 °C 1 km 500 ft 300° 300° 18 kt METAR GCXO 221600Z 30018KT 3000 1000 BCFG SCT001 OVC005 20/19 Q1019 NOSIG
16:30
L
20 °C 900 m 600 ft 290° 290° 17 kt METAR GCXO 221530Z 29017KT 0900 R30/1900N FG SCT001 OVC006 20/19 Q1019 NOSIG
16:00
I
20 °C 3,5 km 600 ft 290° 290° 19 kt METAR GCXO 221500Z 29019KT 8000 3500 PRFG FEW002 OVC006 20/18 Q1019 NOSIG
15:30
I
20 °C 10 km+ 600 ft 290° 290° 19 kt METAR GCXO 221430Z 29019KT 9999 FEW002 BKN006 20/17 Q1019 NOSIG
15:00
I
19 °C 4,5 km 600 ft 290° 290° 18 kt METAR GCXO 221400Z 29018KT 9999 4500 PRFG FEW002 BKN006 19/17 Q1019 NOSIG
14:30
I
21 °C 4,5 km 600 ft 290° 290° 18 kt METAR GCXO 221330Z 29018KT 9999 4500 PRFG FEW002 BKN006 21/19 Q1019 NOSIG
14:00
I
19 °C 4,5 km 600 ft 300° 300° 18 kt METAR GCXO 221300Z 30018KT 9999 4500 PRFG FEW002 BKN006 19/17 Q1019 NOSIG
13:30
I
21 °C 4,5 km 600 ft 300° 300° 17 kt METAR GCXO 221230Z 30017KT 9999 4500 PRFG FEW002 BKN006 21/18 Q1020 NOSIG
13:00
I
21 °C 3,5 km 700 ft 300° 300° 19 kt METAR GCXO 221200Z 30019KT 9000 3500 PRFG -DZ FEW002 OVC007 21/20 Q1020 NOSIG
12:30
I
22 °C 3,5 km 700 ft 300° 300° 18 kt METAR GCXO 221130Z 30018KT 9000 3500 PRFG FEW002 BKN007 22/20 Q1020 NOSIG
12:00
I
20 °C 2,5 km 700 ft 300° 300° 17 kt METAR GCXO 221100Z 30017KT 8000 2500 PRFG FEW002 BKN007 20/19 Q1020 NOSIG
11:30
I
21 °C 4 km 700 ft 300° 300° 17 kt METAR GCXO 221030Z 30017KT 9999 4000 PRFG FEW002 BKN007 21/19 Q1020 NOSIG
11:00
I
20 °C 3 km 700 ft 300° 300° 16 kt METAR GCXO 221000Z 30016KT 9000 3000 PRFG FEW002 BKN007 20/19 Q1020 NOSIG
10:30
I
19 °C 10 km+ 700 ft 300° 300° 16 kt METAR GCXO 220930Z 30016KT 9999 FEW002 BKN007 19/17 Q1020 NOSIG
10:00
I
20 °C 10 km+ 700 ft 300° 300° 17 kt METAR GCXO 220900Z 30017KT 9999 FEW002 BKN007 20/19 Q1020 NOSIG
09:30
I
18 °C 4 km 2.000 ft 300° 300° 18 kt METAR GCXO 220830Z 30018KT 9000 4000 PRFG FEW004 BKN020 18/18 Q1019 NOSIG
Zgłoś zmianę